Latest Weather Observations for Cooktown

IDQ60801

Issued at 7:02 am EST Wednesday 1 July 2015 (issued every 30 minutes, with the page automatically refreshed every 10 minutes)

About weather observations | Map of weather stations | Latest weather observations for QLD | Other Formats
Station Details ID: 031209 Name: COOKTOWN AIRPORT Lat: -15.45 Lon: 145.19 Height: 4.8 m
Data from the previous 72 hours. | See also: Recent months at Cooktown
Date/Time
EST
Temp
°C
App
Temp
°C
Dew
Point
Rel
Hum
%
Delta-T
°C
Wind Press
QNH
hPa
Press
MSL
hPa
Rain
since 9 am
mm
Dir
 
Spd
km/h
Gust
km/h
Spd
kts
Gust
kts
01/07:00am 22.4 21.1 18.1 76 2.7 SE 22 33 12 18 1018.4 - 3.4
01/06:30am 22.5 20.8 18.0 75 2.8 SE 24 43 13 23 1018.0 - 3.4
01/06:00am 22.6 21.2 17.9 75 2.9 SE 22 33 12 18 1017.9 1017.8 3.4
01/05:30am 22.4 21.0 17.9 75 2.8 SE 22 37 12 20 1017.6 - 3.4
01/05:00am 22.2 21.5 18.7 80 2.2 SE 20 32 11 17 1017.6 - 3.4
01/04:30am 22.4 21.0 18.9 80 2.2 SE 24 35 13 19 1017.6 - 3.4
01/04:00am 22.5 22.2 19.5 83 1.9 SE 20 35 11 19 1017.4 - 3.4
01/03:30am 22.3 21.1 19.3 83 1.9 SE 24 35 13 19 1017.4 - 3.4
01/03:00am 22.9 22.5 19.4 80 2.2 SE 20 35 11 19 1017.3 1017.3 3.4
01/02:30am 22.9 22.2 19.6 81 2.1 SE 22 35 12 19 1017.4 - 3.4
01/02:00am 22.7 22.8 19.2 80 2.2 SE 17 26 9 14 1017.4 - 3.4
01/01:30am 23.0 22.6 19.4 80 2.3 SE 20 33 11 18 1017.9 - 3.4
01/01:00am 23.0 22.8 19.4 80 2.3 SE 19 32 10 17 1018.2 - 3.4
01/12:30am 23.2 23.4 19.3 79 2.5 SSE 17 26 9 14 1018.2 - 3.4
01/12:00am 23.1 23.9 19.8 82 2.1 SSE 15 24 8 13 1018.4 1018.4 3.4
 
Date/Time
EST
Temp
°C
App
Temp
°C
Dew
Point
Rel
Hum
%
Delta-T
°C
Wind Press
QNH
hPa
Press
MSL
hPa
Rain
since 9 am
mm
Dir
 
Spd
km/h
Gust
km/h
Spd
kts
Gust
kts
30/11:30pm 23.1 23.2 20.0 83 2.0 SE 19 30 10 16 1018.6 - 3.4
30/11:00pm 23.5 23.9 19.9 80 2.3 SE 17 24 9 13 1018.8 - 3.4
30/10:30pm 23.8 23.5 19.1 75 3.0 ESE 19 26 10 14 1018.7 - 3.4
30/10:00pm 23.9 23.5 19.0 74 3.1 SE 19 30 10 16 1018.9 - 3.4
30/09:30pm 23.9 23.4 19.2 75 3.0 SE 20 28 11 15 1018.9 - 3.4
30/09:00pm 23.9 23.3 18.8 73 3.2 SE 20 30 11 16 1018.7 1018.7 3.4
30/08:30pm 23.9 24.1 19.4 76 2.9 SE 17 30 9 16 1018.4 - 3.4
30/08:00pm 24.0 23.6 19.0 73 3.2 SE 19 32 10 17 1018.1 - 3.4
30/07:30pm 24.1 23.6 19.1 73 3.2 ESE 20 32 11 17 1017.8 - 3.4
30/07:00pm 24.0 24.0 19.8 77 2.7 SE 19 24 10 13 1017.5 - 3.4
30/06:30pm 24.0 24.4 19.8 77 2.7 SE 17 28 9 15 1017.2 - 3.4
30/06:00pm 24.0 24.4 19.8 77 2.7 ESE 17 26 9 14 1017.0 1017.0 3.4
30/05:30pm 24.2 24.3 20.0 77 2.7 ESE 19 32 10 17 1016.8 - 3.4
30/05:00pm 24.4 24.3 19.9 76 2.9 SE 20 33 11 18 1016.6 - 3.4
30/04:30pm 24.7 23.7 19.7 73 3.2 SE 24 37 13 20 1016.4 - 3.4
30/04:00pm 24.7 24.4 20.4 77 2.8 SE 22 33 12 18 1016.2 - 3.4
30/03:30pm 25.8 25.5 20.3 71 3.6 ESE 22 33 12 18 1016.1 - 3.4
30/03:13pm 25.6 24.6 20.4 73 3.4 ESE 26 41 14 22 1016.2 - 3.4
30/03:00pm 25.6 24.4 20.1 71 3.6 ESE 26 43 14 23 1016.3 1016.3 3.4
30/02:52pm 26.3 26.4 21.2 73 3.4 ESE 22 35 12 19 1016.3 - 3.4
30/02:30pm 26.1 24.7 20.4 71 3.7 ESE 28 39 15 21 1016.2 - 3.4
30/02:00pm 25.8 24.4 20.4 72 3.5 ESE 28 43 15 23 1016.2 - 3.4
30/01:57pm 26.1 25.1 21.3 75 3.2 ESE 28 46 15 25 1016.2 - 3.4
30/01:53pm 25.7 24.0 20.5 73 3.4 ESE 30 46 16 25 1016.2 - 3.4
30/01:48pm 25.8 24.7 21.1 75 3.1 ESE 28 46 15 25 1016.3 - 3.4
30/01:43pm 25.9 25.9 21.7 77 2.8 ESE 24 41 13 22 1016.3 - 3.4
30/01:30pm 25.4 25.9 21.9 81 2.3 E 22 35 12 19 1016.4 - 3.4
30/01:00pm 23.4 25.6 21.9 91 1.0 E 13 17 7 9 1016.9 - 3.4
30/12:56pm 23.5 25.4 22.1 92 0.9 E 15 20 8 11 1017.0 - 3.4
30/12:32pm 22.5 20.4 20.6 89 1.2 ENE 32 41 17 22 1017.5 - 1.0
30/12:30pm 23.6 21.5 20.5 83 2.0 E 32 41 17 22 1017.4 - 0.2
30/12:00pm 25.7 25.2 18.6 65 4.5 SE 19 28 10 15 1017.5 - 0.2
30/11:30am 23.8 23.1 19.4 76 2.8 ESE 22 35 12 19 1018.2 - 0.0
30/11:03am 24.7 22.5 20.4 77 2.8 E 32 52 17 28 1018.4 - 0.0
30/11:00am 24.5 22.2 20.2 77 2.8 E 32 46 17 25 1018.4 - 0.0
30/10:30am 25.1 23.8 20.7 76 2.9 ESE 28 39 15 21 1018.3 - 0.0
30/10:00am 25.9 25.8 21.4 76 3.0 ESE 24 37 13 20 1018.3 - 0.0
30/09:30am 25.0 26.2 21.4 80 2.4 SE 17 28 9 15 1018.2 - 0.0
30/09:00am 25.2 26.1 21.6 80 2.4 ESE 19 28 10 15 1018.0 1018.0 6.8
30/08:30am 23.6 27.1 22.1 91 1.0 SSE 7 13 4 7 1017.8 - 6.8
30/08:00am 23.4 25.6 21.1 87 1.5 SE 11 19 6 10 1017.4 - 6.8
30/07:30am 22.0 24.5 21.1 95 0.6 S 9 13 5 7 1016.9 - 6.8
30/07:14am 21.6 24.5 21.0 96 0.4 S 7 15 4 8 1016.7 - 6.8
30/07:00am 21.4 25.1 20.8 96 0.4 WNW 2 7 1 4 1016.6 - 6.8
30/06:42am 21.2 24.1 20.6 96 0.4 NNW 6 9 3 5 1016.4 - 6.8
30/06:33am 21.1 23.9 20.5 96 0.4 NW 6 9 3 5 1016.4 - 6.6
30/06:30am 21.1 23.9 20.5 96 0.4 WSW 6 9 3 5 1016.4 - 6.6
30/06:24am 21.2 24.7 20.4 95 0.5 SW 2 9 1 5 1016.1 - 6.6
30/06:04am 21.1 24.2 20.3 95 0.5 S 4 11 2 6 1016.1 - 6.0
30/06:00am 21.1 24.6 20.3 95 0.5 S 2 11 1 6 1016.1 1016.1 6.0
30/05:51am 21.1 24.2 20.3 95 0.5 SSE 4 9 2 5 1016.0 - 6.0
30/05:30am 21.0 23.7 20.2 95 0.5 SE 6 7 3 4 1015.9 - 6.0
30/05:00am 21.2 23.5 20.6 96 0.4 SSE 9 11 5 6 1016.0 - 6.0
30/04:53am 21.2 23.5 20.6 96 0.4 S 9 13 5 7 1016.0 - 6.0
30/04:30am 21.2 23.8 20.4 95 0.5 SSW 7 13 4 7 1016.0 - 6.0
30/04:23am 21.2 23.9 20.6 96 0.4 SSW 7 13 4 7 1015.9 - 5.8
30/04:00am 21.3 25.3 20.5 95 0.5 CALM 0 0 0 0 1016.1 - 5.6
30/03:32am 21.4 22.0 20.3 93 0.7 ESE 17 28 9 15 1016.0 - 5.6
30/03:31am 21.4 21.7 20.3 93 0.7 ESE 19 28 10 15 1016.0 - 5.6
30/03:30am 21.4 21.7 20.3 93 0.7 ESE 19 28 10 15 1016.0 - 5.6
30/03:00am 21.1 21.4 20.3 95 0.5 ESE 19 28 10 15 1016.4 1016.3 5.2
30/02:30am 21.5 24.2 20.6 95 0.6 SE 7 9 4 5 1016.3 - 2.8
30/02:29am 21.5 24.2 20.6 95 0.6 SE 7 9 4 5 1016.4 - 2.8
30/02:25am 21.5 24.2 20.6 95 0.6 SE 7 9 4 5 1016.4 - 2.6
30/02:00am 21.4 24.0 20.5 95 0.6 SSE 7 11 4 6 1016.6 - 2.6
30/01:57am 21.4 24.0 20.5 95 0.6 SSE 7 11 4 6 1016.6 - 2.6
30/01:30am 21.5 23.7 20.4 93 0.7 ESE 9 17 5 9 1016.8 - 2.6
30/01:27am 21.5 23.7 20.4 93 0.7 ESE 9 17 5 9 1016.8 - 2.6
30/01:00am 21.5 23.2 20.1 92 0.9 SE 11 17 6 9 1016.8 - 2.6
30/12:49am 21.7 22.2 20.1 91 1.0 ESE 17 30 9 16 1016.8 - 2.6
30/12:30am 21.7 21.9 20.5 93 0.8 ESE 20 28 11 15 1016.9 - 2.6
30/12:07am 21.5 24.1 20.4 93 0.7 SSE 7 11 4 6 1017.0 - 0.8
30/12:00am 21.4 24.5 20.3 93 0.7 SSE 4 9 2 5 1017.0 1016.9 0.4
 
Date/Time
EST
Temp
°C
App
Temp
°C
Dew
Point
Rel
Hum
%
Delta-T
°C
Wind Press
QNH
hPa
Press
MSL
hPa
Rain
since 9 am
mm
Dir
 
Spd
km/h
Gust
km/h
Spd
kts
Gust
kts
29/11:57pm 21.3 24.5 20.4 95 0.6 SSE 4 7 2 4 1017.0 - 0.4
29/11:30pm 21.1 24.5 20.2 95 0.6 SSE 2 7 1 4 1017.1 - 0.4
29/11:00pm 20.8 24.5 19.9 95 0.6 CALM 0 6 0 3 1017.4 - 0.4
29/10:30pm 21.3 24.6 20.0 92 0.8 SSW 2 7 1 4 1017.6 - 0.4
29/10:00pm 21.3 25.1 20.2 93 0.7 CALM 0 0 0 0 1017.6 - 0.4
29/09:30pm 21.4 25.1 20.0 92 0.9 CALM 0 2 0 1 1017.4 - 0.4
29/09:00pm 21.7 23.0 20.1 91 1.0 SSE 13 19 7 10 1017.4 1017.4 0.4
29/08:30pm 21.8 23.0 19.9 89 1.2 SE 13 20 7 11 1017.1 - 0.2
29/08:00pm 22.3 23.4 19.6 85 1.7 ESE 13 19 7 10 1016.9 - 0.2
29/07:30pm 23.2 23.9 18.8 76 2.8 SE 13 20 7 11 1016.5 - 0.2
29/07:00pm 23.0 24.6 19.1 78 2.5 SE 9 15 5 8 1016.3 - 0.2
29/06:30pm 23.3 24.6 19.4 79 2.5 SE 11 17 6 9 1016.1 - 0.2
29/06:00pm 23.5 24.6 19.6 79 2.5 ESE 13 22 7 12 1016.0 1016.0 0.2
29/05:30pm 23.9 24.5 19.4 76 2.9 SE 15 26 8 14 1015.9 - 0.2
29/05:00pm 24.9 25.2 19.6 72 3.4 SE 17 26 9 14 1015.7 - 0.2
29/04:30pm 24.9 24.9 18.9 69 3.8 ESE 17 32 9 17 1015.6 - 0.2
29/04:00pm 24.2 24.6 19.9 77 2.8 ESE 17 28 9 15 1015.5 - 0.2
29/03:30pm 25.6 25.5 19.5 69 3.9 SE 19 28 10 15 1015.5 - 0.2
29/03:00pm 25.0 24.8 19.7 72 3.4 SE 20 32 11 17 1015.7 1015.7 0.2
29/02:30pm 25.7 25.5 19.7 69 3.9 SE 20 28 11 15 1016.0 - 0.2
29/02:00pm 26.3 26.1 19.8 67 4.2 ESE 20 28 11 15 1016.1 - 0.2
29/01:30pm 26.2 26.0 19.7 67 4.2 SE 20 28 11 15 1016.4 - 0.2
29/01:00pm 26.1 26.1 19.8 68 4.1 SE 19 26 10 14 1016.8 - 0.2
29/12:30pm 26.0 26.2 19.3 66 4.3 SE 17 26 9 14 1017.3 - 0.2
29/12:00pm 26.0 25.5 19.0 65 4.5 SE 20 32 11 17 1017.6 1017.6 0.2
29/11:30am 25.6 24.7 19.0 67 4.2 ESE 22 33 12 18 1018.0 - 0.2
29/11:00am 26.0 26.4 19.1 65 4.4 SE 15 22 8 12 1018.4 - 0.2
29/10:30am 25.1 25.1 19.7 72 3.5 SE 19 28 10 15 1018.6 - 0.0
29/10:00am 24.9 26.3 20.4 76 2.9 SE 13 19 7 10 1018.7 - 0.0
29/09:30am 23.5 27.2 19.9 80 2.3 CALM 0 0 0 0 1018.8 - 0.0
29/09:00am 21.8 25.4 19.8 88 1.3 CALM 0 0 0 0 1018.9 1018.9 1.8
29/08:30am 20.8 23.1 19.5 92 0.8 WNW 6 7 3 4 1018.7 - 1.8
29/08:00am 19.3 22.5 18.8 97 0.3 CALM 0 0 0 0 1018.6 - 1.8
29/07:42am 18.9 21.9 18.4 97 0.3 CALM 0 0 0 0 1018.4 - 1.8
29/07:30am 18.4 21.2 17.9 97 0.3 CALM 0 0 0 0 1018.3 - 1.8
29/07:08am 18.1 20.7 17.6 97 0.3 CALM 0 0 0 0 1018.0 - 1.8
29/07:00am 17.6 20.1 17.3 98 0.2 CALM 0 0 0 0 1017.9 - 1.8
29/06:47am 18.2 21.0 17.9 98 0.2 CALM 0 0 0 0 1017.8 - 1.8
29/06:35am 18.3 21.1 18.0 98 0.2 CALM 0 0 0 0 1017.7 - 1.8
29/06:30am 18.8 21.7 18.3 97 0.3 CALM 0 0 0 0 1017.8 - 1.8
29/06:00am 19.2 21.1 18.6 96 0.4 NNW 6 9 3 5 1017.7 1017.7 1.8
29/05:30am 19.5 22.3 18.9 96 0.4 SW 2 7 1 4 1017.4 - 1.8
29/05:26am 19.5 21.9 18.9 96 0.4 SW 4 11 2 6 1017.4 - 1.8
29/05:05am 19.5 21.4 18.9 96 0.4 WSW 7 13 4 7 1017.3 - 1.8
29/05:03am 19.5 21.0 18.9 96 0.4 WSW 9 13 5 7 1017.3 - 1.8
29/05:00am 19.5 21.4 18.9 96 0.4 SW 7 11 4 6 1017.3 - 1.8
29/04:53am 19.5 21.0 18.9 96 0.4 SW 9 15 5 8 1017.3 - 1.8
29/04:30am 19.5 20.6 18.9 96 0.4 SSW 11 17 6 9 1017.4 - 0.8
29/04:09am 19.1 22.1 18.5 96 0.4 CALM 0 6 0 3 1017.2 - 0.4
29/04:00am 19.0 22.0 18.4 96 0.4 CALM 0 0 0 0 1017.3 - 0.4
29/03:30am 19.0 20.8 18.4 96 0.4 WSW 6 7 3 4 1017.2 - 0.2
29/03:00am 18.5 20.2 18.0 97 0.3 NW 6 7 3 4 1017.4 1017.4 0.2
29/02:30am 17.9 20.5 17.4 97 0.3 CALM 0 0 0 0 1017.7 - 0.2
29/02:19am 17.7 20.2 17.2 97 0.3 CALM 0 0 0 0 1017.6 - 0.2
29/02:01am 17.8 20.3 17.3 97 0.3 CALM 0 0 0 0 1017.7 - 0.2
29/02:00am 17.9 20.5 17.4 97 0.3 CALM 0 0 0 0 1017.7 - 0.2
29/01:30am 18.2 20.9 17.7 97 0.3 CALM 0 0 0 0 1018.0 - 0.2
29/01:00am 18.6 21.4 17.9 96 0.4 CALM 0 0 0 0 1018.0 - 0.2
29/12:30am 18.3 20.9 17.6 96 0.4 CALM 0 0 0 0 1018.4 - 0.2
29/12:00am 18.3 20.9 17.6 96 0.4 CALM 0 0 0 0 1018.5 1018.6 0.2
 
Date/Time
EST
Temp
°C
App
Temp
°C
Dew
Point
Rel
Hum
%
Delta-T
°C
Wind Press
QNH
hPa
Press
MSL
hPa
Rain
since 9 am
mm
Dir
 
Spd
km/h
Gust
km/h
Spd
kts
Gust
kts
28/11:30pm 18.5 21.3 18.0 97 0.3 CALM 0 0 0 0 1018.8 - 0.2
28/11:00pm 18.7 21.5 17.9 95 0.5 CALM 0 0 0 0 1019.0 - 0.2
28/10:30pm 19.4 22.4 18.4 94 0.6 CALM 0 0 0 0 1019.1 - 0.2
28/10:00pm 20.1 23.3 18.8 92 0.8 CALM 0 0 0 0 1019.2 - 0.2
28/09:30pm 20.8 24.2 19.4 92 0.9 CALM 0 0 0 0 1019.2 - 0.2
28/09:00pm 21.4 23.9 19.0 86 1.5 SSW 4 7 2 4 1019.3 1019.3 0.2
28/08:30pm 21.3 22.7 18.7 85 1.6 ESE 9 13 5 7 1019.2 - 0.2
28/08:00pm 21.6 22.6 18.7 83 1.8 SE 11 15 6 8 1019.0 - 0.2
28/07:30pm 21.5 23.2 19.3 87 1.4 SE 9 15 5 8 1018.8 - 0.2
28/07:00pm 21.4 22.8 19.5 89 1.2 ESE 11 17 6 9 1018.4 - 0.2
28/06:30pm 21.5 20.8 19.5 88 1.3 SE 22 33 12 18 1018.2 - 0.2
28/06:00pm 23.3 23.1 17.5 70 3.6 ESE 15 20 8 11 1018.2 1018.2 0.0
28/05:30pm 23.8 22.4 17.0 65 4.2 SE 20 28 11 15 1017.8 - 0.0
28/05:00pm 24.2 23.0 17.6 66 4.1 ESE 20 30 11 16 1017.4 - 0.0
28/04:30pm 24.4 23.4 16.6 61 4.8 SE 17 26 9 14 1017.2 - 0.0
28/04:00pm 25.3 24.0 17.3 61 5.0 SE 20 33 11 18 1017.3 - 0.0
28/03:30pm 25.6 24.3 16.7 58 5.5 SE 19 30 10 16 1017.2 - 0.0
28/03:00pm 25.8 24.2 17.5 60 5.2 SE 22 41 12 22 1017.4 1017.5 0.0
28/02:30pm 25.6 24.4 17.4 60 5.1 SE 20 33 11 18 1017.5 - 0.0
28/02:00pm 25.9 25.0 18.3 63 4.8 SE 20 39 11 21 1017.9 - 0.0
28/01:30pm 25.7 24.5 18.3 63 4.7 SE 22 33 12 18 1018.0 - 0.0
28/01:00pm 25.3 23.7 18.3 65 4.4 SE 24 39 13 21 1018.4 - 0.0
28/12:39pm 25.1 22.5 17.9 64 4.5 SE 28 46 15 25 1018.6 - 0.0
28/12:30pm 25.6 24.2 18.7 65 4.4 SE 24 35 13 19 1018.7 - 0.0
28/12:00pm 25.1 22.8 18.5 67 4.2 SE 28 44 15 24 1018.9 1018.9 0.0
28/11:30am 25.3 23.6 18.2 64 4.5 SE 24 33 13 18 1019.1 - 0.0
28/11:00am 24.5 22.7 17.9 66 4.1 SE 24 37 13 20 1019.2 - 0.0
28/10:30am 24.7 24.1 18.4 68 4.0 ESE 19 32 10 17 1019.5 - 0.0
28/10:00am 24.8 25.3 17.4 63 4.6 SSE 11 20 6 11 1019.6 - 0.0
28/09:30am 22.7 24.7 17.9 74 3.0 W 4 9 2 5 1019.9 - 0.0
28/09:00am 21.1 23.3 17.5 80 2.2 WNW 2 7 1 4 1019.8 1019.8 0.0
28/08:30am 19.7 22.0 16.7 83 1.8 CALM 0 0 0 0 1019.7 - 0.0
28/08:00am 18.1 20.2 17.1 94 0.6 WNW 2 7 1 4 1019.5 - 0.0
28/07:30am 15.9 17.7 15.4 97 0.3 CALM 0 0 0 0 1019.3 - 0.0

Other Formats:

Comma delimited format used in spreadsheet applications
http://www.bom.gov.au/fwo/IDQ60801/IDQ60801.95283.axf

JavaScript Object Notation format (JSON) in row-major order
http://www.bom.gov.au/fwo/IDQ60801/IDQ60801.95283.json